Time;durP1;ratioP1;P1;durP2;ratioP2;P2;SDS_P1;SDS_P2;PMS_P1;PMS_P2;Temp;Humidity;BMP_temperature;BMP_pressure;BME280_temperature;BME280_humidity;BME280_pressure;Samples;Min_cycle;Max_cycle;Signal;HPM_P1;HPM_P2
2022/11/20 00:01:36;;;;;;;30.02;13.40;;;;;;;;;;5016063;28;20100;-78
2022/11/20 00:04:02;;;;;;;31.40;14.38;;;;;;;;;;5015967;28;20499;-78
2022/11/20 00:06:29;;;;;;;30.30;14.48;;;;;;;;;;5015883;28;20108;-78
2022/11/20 00:08:59;;;;;;;26.95;13.35;;;;;;;;;;5015680;28;20468;-78
2022/11/20 00:11:26;;;;;;;26.25;12.95;;;;;;;;;;5015913;28;20060;-78
2022/11/20 00:14:29;;;;;;;26.35;12.05;;;;;;;;;;5015967;28;20030;-78
2022/11/20 00:16:55;;;;;;;25.80;13.07;;;;;;;;;;5015609;28;20030;-78
2022/11/20 00:19:21;;;;;;;25.33;13.57;;;;;;;;;;5015759;28;20026;-78
2022/11/20 00:21:51;;;;;;;25.88;13.27;;;;;;;;;;5015467;28;20033;-78
2022/11/20 00:24:17;;;;;;;28.00;14.60;;;;;;;;;;5015917;28;20025;-78
2022/11/20 00:26:43;;;;;;;27.90;14.35;;;;;;;;;;5015583;28;20036;-78
2022/11/20 00:29:10;;;;;;;27.98;14.38;;;;;;;;;;5015575;28;20080;-78
2022/11/20 00:31:36;;;;;;;31.95;14.90;;;;;;;;;;5015633;28;20021;-78
2022/11/20 00:34:02;;;;;;;25.50;13.55;;;;;;;;;;5005490;28;20473;-78
2022/11/20 00:36:29;;;;;;;25.77;13.27;;;;;;;;;;4996037;28;20117;-78
2022/11/20 00:38:56;;;;;;;23.90;12.27;;;;;;;;;;4995351;28;20022;-78
2022/11/20 00:41:22;;;;;;;30.15;13.23;;;;;;;;;;4995690;28;20081;-78
2022/11/20 00:43:49;;;;;;;22.67;11.95;;;;;;;;;;4995702;28;20032;-78
2022/11/20 00:46:16;;;;;;;21.35;11.65;;;;;;;;;;4995322;28;20393;-78
2022/11/20 00:48:42;;;;;;;22.98;10.98;;;;;;;;;;4995920;28;20338;-78
2022/11/20 00:51:08;;;;;;;20.98;11.15;;;;;;;;;;4995647;28;20022;-78
2022/11/20 00:53:34;;;;;;;20.08;11.30;;;;;;;;;;4995213;28;20026;-78
2022/11/20 00:56:05;;;;;;;19.20;10.30;;;;;;;;;;5014962;28;20034;-78
2022/11/20 00:58:31;;;;;;;;;;;;;;;;;;5015525;28;20480;-77
2022/11/20 01:01:16;;;;;;;20.17;9.00;;;;;;;;;;5014683;28;19912;-78
2022/11/20 01:03:44;;;;;;;22.45;10.52;;;;;;;;;;5014974;28;20030;-78
2022/11/20 01:06:12;;;;;;;19.92;9.55;;;;;;;;;;5014860;28;20034;-78
2022/11/20 01:08:38;;;;;;;17.48;9.25;;;;;;;;;;5014722;28;20033;-78
2022/11/20 01:11:06;;;;;;;17.35;9.20;;;;;;;;;;5014894;28;20033;-78
2022/11/20 01:13:38;;;;;;;18.63;9.45;;;;;;;;;;5014658;28;20021;-77
2022/11/20 01:16:05;;;;;;;23.23;11.13;;;;;;;;;;5013222;28;20029;-78
2022/11/20 01:18:32;;;;;;;20.20;10.65;;;;;;;;;;5014190;28;20053;-78
2022/11/20 01:21:02;;;;;;;20.08;10.10;;;;;;;;;;5014869;28;20034;-78
2022/11/20 01:23:30;;;;;;;19.75;9.60;;;;;;;;;;5013206;28;20032;-78
2022/11/20 01:25:56;;;;;;;20.65;10.13;;;;;;;;;;5014567;28;20100;-78
2022/11/20 01:28:22;;;;;;;22.45;10.73;;;;;;;;;;5014344;28;20024;-78
2022/11/20 01:30:48;;;;;;;20.92;10.27;;;;;;;;;;5014426;28;20032;-78
2022/11/20 01:33:14;;;;;;;20.00;9.38;;;;;;;;;;5014331;28;20037;-78
2022/11/20 01:35:40;;;;;;;18.77;9.60;;;;;;;;;;5014288;28;20463;-78
2022/11/20 01:38:06;;;;;;;20.38;9.48;;;;;;;;;;5008167;28;20481;-78
2022/11/20 01:40:32;;;;;;;18.05;9.30;;;;;;;;;;4994313;28;20026;-78
2022/11/20 01:43:21;;;;;;;18.95;9.88;;;;;;;;;;5009308;28;20121;-78
2022/11/20 01:45:47;;;;;;;21.92;11.73;;;;;;;;;;5009071;28;20069;-78
2022/11/20 01:48:14;;;;;;;31.23;14.43;;;;;;;;;;5014779;28;20022;-78
2022/11/20 01:50:40;;;;;;;27.88;14.10;;;;;;;;;;5014369;28;20068;-78
2022/11/20 01:53:08;;;;;;;19.05;11.77;;;;;;;;;;5013978;28;20030;-77
2022/11/20 01:55:37;;;;;;;22.08;9.70;;;;;;;;;;5014245;28;20029;-78
2022/11/20 01:58:03;;;;;;;19.40;9.57;;;;;;;;;;5014045;28;20392;-78
2022/11/20 02:00:30;;;;;;;19.95;8.90;;;;;;;;;;5013897;28;20037;-78
2022/11/20 02:02:58;;;;;;;18.42;9.57;;;;;;;;;;5013899;28;20073;-78
2022/11/20 02:05:27;;;;;;;16.88;8.88;;;;;;;;;;5014290;28;20018;-78
2022/11/20 02:07:54;;;;;;;19.83;9.63;;;;;;;;;;5002777;28;20026;-78
2022/11/20 02:10:21;;;;;;;17.88;9.32;;;;;;;;;;4994441;28;20030;-78
2022/11/20 02:15:33;;;;;;;19.02;9.10;;;;;;;;;;4994311;28;20038;-78
2022/11/20 02:17:59;;;;;;;20.10;9.32;;;;;;;;;;4993792;28;20051;-78
2022/11/20 02:20:25;;;;;;;18.63;9.15;;;;;;;;;;4994350;28;20358;-78
2022/11/20 02:22:55;;;;;;;18.85;9.18;;;;;;;;;;4994164;28;20034;-78
2022/11/20 02:25:21;;;;;;;18.58;8.80;;;;;;;;;;4994367;28;20465;-77
2022/11/20 02:27:47;;;;;;;21.15;10.23;;;;;;;;;;4994084;28;20098;-77
2022/11/20 02:30:13;;;;;;;21.10;10.10;;;;;;;;;;4994154;28;20388;-78
2022/11/20 02:32:40;;;;;;;18.73;9.73;;;;;;;;;;4994094;28;20026;-78
2022/11/20 02:35:10;;;;;;;23.98;12.48;;;;;;;;;;4994468;28;20357;-78
2022/11/20 02:37:37;;;;;;;26.77;13.65;;;;;;;;;;4995984;28;20031;-78
2022/11/20 02:40:03;;;;;;;26.40;14.05;;;;;;;;;;5011229;28;20076;-78
2022/11/20 02:42:29;;;;;;;24.92;13.68;;;;;;;;;;5012327;28;20060;-78
2022/11/20 02:44:55;;;;;;;24.95;13.55;;;;;;;;;;5013745;28;20061;-78
2022/11/20 02:47:21;;;;;;;23.80;13.07;;;;;;;;;;5017138;28;20030;-78
2022/11/20 02:49:47;;;;;;;20.63;10.63;;;;;;;;;;5009945;28;20782;-77
2022/11/20 02:52:13;;;;;;;21.52;11.02;;;;;;;;;;4997708;28;20026;-78
2022/11/20 02:54:39;;;;;;;21.15;10.93;;;;;;;;;;4997599;28;20080;-77
2022/11/20 02:57:05;;;;;;;17.83;10.20;;;;;;;;;;4997449;28;20042;-77
2022/11/20 02:59:31;;;;;;;20.73;11.10;;;;;;;;;;4997677;28;20030;-78
2022/11/20 03:01:57;;;;;;;18.58;10.35;;;;;;;;;;4997623;28;20620;-78
2022/11/20 03:04:23;;;;;;;21.88;10.07;;;;;;;;;;4997206;28;20029;-78
2022/11/20 03:06:49;;;;;;;19.00;10.20;;;;;;;;;;5001712;28;20026;-78
2022/11/20 03:09:15;;;;;;;18.40;9.85;;;;;;;;;;5017248;28;20100;-78
2022/11/20 03:11:41;;;;;;;20.23;10.07;;;;;;;;;;5017279;28;20022;-78
2022/11/20 03:14:07;;;;;;;18.75;9.60;;;;;;;;;;5016984;28;20484;-78
2022/11/20 03:16:33;;;;;;;20.98;10.07;;;;;;;;;;5016730;28;20044;-78
2022/11/20 03:18:59;;;;;;;19.63;9.70;;;;;;;;;;5016826;28;20448;-78
2022/11/20 03:21:25;;;;;;;18.00;9.18;;;;;;;;;;5017140;28;20044;-78
2022/11/20 03:23:51;;;;;;;15.02;8.77;;;;;;;;;;5016836;28;20068;-77
2022/11/20 03:26:19;;;;;;;17.45;8.73;;;;;;;;;;5016729;28;20376;-77
2022/11/20 03:28:49;;;;;;;18.17;9.13;;;;;;;;;;5016461;28;20018;-78
2022/11/20 03:31:16;;;;;;;19.38;9.65;;;;;;;;;;5017126;28;20049;-78
2022/11/20 03:33:42;;;;;;;16.65;9.10;;;;;;;;;;5016567;28;20029;-77
2022/11/20 03:36:10;;;;;;;15.13;9.05;;;;;;;;;;5016777;28;20453;-78
2022/11/20 03:38:36;;;;;;;16.55;9.23;;;;;;;;;;5016257;28;20022;-78
2022/11/20 03:41:06;;;;;;;18.38;9.43;;;;;;;;;;5010216;28;20037;-78
2022/11/20 03:43:33;;;;;;;17.27;9.52;;;;;;;;;;5008240;28;20034;-77
2022/11/20 03:45:59;;;;;;;17.67;8.93;;;;;;;;;;5015970;28;20045;-77
2022/11/20 03:48:29;;;;;;;19.45;9.90;;;;;;;;;;5015770;28;20018;-77
2022/11/20 03:51:12;;;;;;;18.65;8.80;;;;;;;;;;5015960;28;20076;-77
2022/11/20 03:53:38;;;;;;;18.70;9.73;;;;;;;;;;4996259;28;20026;-77
2022/11/20 03:56:05;;;;;;;15.10;8.48;;;;;;;;;;4996195;28;20034;-77
2022/11/20 03:58:31;;;;;;;17.48;9.13;;;;;;;;;;4995121;28;20026;-77
2022/11/20 04:00:57;;;;;;;19.38;9.55;;;;;;;;;;4996187;28;20063;-77
2022/11/20 04:03:23;;;;;;;17.60;8.93;;;;;;;;;;5014362;28;20029;-78
2022/11/20 04:05:49;;;;;;;15.77;8.32;;;;;;;;;;5015739;28;20520;-77
2022/11/20 04:08:15;;;;;;;16.85;8.57;;;;;;;;;;5015374;28;20022;-78
2022/11/20 04:10:41;;;;;;;14.95;7.97;;;;;;;;;;5015577;28;20022;-78
2022/11/20 04:13:07;;;;;;;16.48;8.68;;;;;;;;;;5015565;28;20033;-77
2022/11/20 04:15:33;;;;;;;18.67;8.82;;;;;;;;;;5004593;28;20081;-78
2022/11/20 04:17:58;;;;;;;15.00;8.40;;;;;;;;;;4995668;28;20516;-78
2022/11/20 04:20:24;;;;;;;14.98;7.85;;;;;;;;;;4995749;28;20026;-77
2022/11/20 04:22:53;;;;;;;15.45;8.57;;;;;;;;;;4995648;28;20072;-78
2022/11/20 04:25:19;;;;;;;16.67;8.55;;;;;;;;;;4995790;28;20105;-78
2022/11/20 04:27:45;;;;;;;17.27;8.55;;;;;;;;;;5005436;28;20121;-77
2022/11/20 04:30:12;;;;;;;14.70;7.88;;;;;;;;;;5015162;28;20026;-77
2022/11/20 04:32:38;;;;;;;15.45;8.35;;;;;;;;;;5015319;28;20034;-77
2022/11/20 04:35:04;;;;;;;15.55;7.72;;;;;;;;;;5015397;28;20349;-78
2022/11/20 04:37:30;;;;;;;17.63;8.52;;;;;;;;;;5015821;28;20041;-78
2022/11/20 04:39:56;;;;;;;15.00;7.80;;;;;;;;;;5004375;28;20031;-77
2022/11/20 04:42:28;;;;;;;17.55;8.20;;;;;;;;;;4994238;28;20493;-77
2022/11/20 04:44:54;;;;;;;14.25;8.35;;;;;;;;;;4995582;28;20072;-77
2022/11/20 04:47:20;;;;;;;15.32;8.15;;;;;;;;;;4995346;28;20038;-77
2022/11/20 04:49:46;;;;;;;15.98;8.70;;;;;;;;;;4995366;28;20026;-77
2022/11/20 04:52:12;;;;;;;15.25;8.27;;;;;;;;;;4995428;28;20116;-78
2022/11/20 04:54:38;;;;;;;14.20;7.43;;;;;;;;;;4995182;28;20080;-77
2022/11/20 04:57:04;;;;;;;15.00;7.28;;;;;;;;;;4995223;28;20034;-77
2022/11/20 04:59:30;;;;;;;15.60;7.93;;;;;;;;;;4995275;28;20473;-77
2022/11/20 05:01:56;;;;;;;15.70;7.82;;;;;;;;;;4995432;28;20030;-78
2022/11/20 05:04:22;;;;;;;13.88;7.13;;;;;;;;;;4995317;28;20058;-78
2022/11/20 05:06:50;;;;;;;14.93;8.05;;;;;;;;;;4995315;28;20029;-78
2022/11/20 05:09:16;;;;;;;17.42;9.57;;;;;;;;;;4994545;28;20026;-78
2022/11/20 05:11:42;;;;;;;16.88;8.23;;;;;;;;;;4994876;28;20105;-77
2022/11/20 05:14:08;;;;;;;14.98;8.00;;;;;;;;;;4995029;28;20045;-77
2022/11/20 05:16:35;;;;;;;13.90;7.85;;;;;;;;;;5005774;28;20462;-77
2022/11/20 05:19:01;;;;;;;16.73;8.00;;;;;;;;;;5013048;28;20080;-77
2022/11/20 05:21:27;;;;;;;15.20;7.88;;;;;;;;;;5014615;28;20021;-78
2022/11/20 05:23:53;;;;;;;13.80;7.40;;;;;;;;;;5014507;28;20033;-77
2022/11/20 05:26:22;;;;;;;14.98;7.63;;;;;;;;;;5014402;28;20034;-78
2022/11/20 05:28:49;;;;;;;14.00;7.32;;;;;;;;;;5014631;28;20030;-77
2022/11/20 05:31:16;;;;;;;15.57;8.15;;;;;;;;;;5003545;28;20042;-78
2022/11/20 05:33:43;;;;;;;16.50;7.95;;;;;;;;;;5005436;28;20031;-78
2022/11/20 05:36:10;;;;;;;16.35;8.23;;;;;;;;;;4997820;28;20374;-78
2022/11/20 05:38:36;;;;;;;14.88;7.82;;;;;;;;;;4994916;28;20085;-78
2022/11/20 05:41:09;;;;;;;13.10;7.68;;;;;;;;;;5007814;28;20022;-78
2022/11/20 05:43:35;;;;;;;12.88;7.30;;;;;;;;;;5009709;28;20069;-78
2022/11/20 05:46:01;;;;;;;15.82;7.43;;;;;;;;;;4994538;28;20034;-78
2022/11/20 05:48:27;;;;;;;15.25;7.85;;;;;;;;;;4994487;28;20450;-78
2022/11/20 05:50:53;;;;;;;15.65;7.60;;;;;;;;;;4994686;28;20022;-78
2022/11/20 05:53:19;;;;;;;13.43;7.68;;;;;;;;;;4994327;28;20467;-78
2022/11/20 05:55:45;;;;;;;15.00;7.50;;;;;;;;;;4994459;28;20046;-78
2022/11/20 05:58:11;;;;;;;19.23;8.32;;;;;;;;;;4994192;28;20030;-78
2022/11/20 06:00:37;;;;;;;16.02;8.27;;;;;;;;;;4994182;28;20072;-78
2022/11/20 06:03:03;;;;;;;15.50;8.05;;;;;;;;;;4994276;28;20037;-78
2022/11/20 06:05:29;;;;;;;16.55;8.70;;;;;;;;;;5003829;28;20049;-78
2022/11/20 06:07:55;;;;;;;13.48;8.02;;;;;;;;;;5000477;28;20030;-78
2022/11/20 06:10:21;;;;;;;14.45;7.13;;;;;;;;;;4993872;28;20157;-78
2022/11/20 06:12:47;;;;;;;14.07;7.35;;;;;;;;;;5013589;28;20041;-78
2022/11/20 06:15:13;;;;;;;15.57;8.45;;;;;;;;;;5012523;28;20475;-78
2022/11/20 06:17:39;;;;;;;16.45;8.77;;;;;;;;;;5012099;28;20050;-78
2022/11/20 06:20:05;;;;;;;16.27;8.40;;;;;;;;;;5014045;28;20026;-78
2022/11/20 06:22:33;;;;;;;14.85;8.35;;;;;;;;;;5017629;28;20026;-78
2022/11/20 06:24:59;;;;;;;16.73;8.40;;;;;;;;;;5004630;28;20018;-78
2022/11/20 06:27:25;;;;;;;14.45;7.93;;;;;;;;;;4997912;28;20036;-78
2022/11/20 06:30:01;;;;;;;15.43;8.68;;;;;;;;;;5006939;28;20033;-77
2022/11/20 06:32:27;;;;;;;17.30;8.57;;;;;;;;;;4998090;28;20038;-77
2022/11/20 06:34:53;;;;;;;17.23;8.85;;;;;;;;;;5017265;28;20021;-78
2022/11/20 06:37:19;;;;;;;19.23;8.98;;;;;;;;;;5010754;28;20477;-78
2022/11/20 06:39:45;;;;;;;15.55;8.23;;;;;;;;;;5013584;28;20041;-78
2022/11/20 06:42:10;;;;;;;16.67;9.18;;;;;;;;;;5003584;28;20057;-78
2022/11/20 06:44:36;;;;;;;18.40;9.20;;;;;;;;;;5004272;28;20362;-77
2022/11/20 06:47:03;;;;;;;17.77;9.35;;;;;;;;;;4999896;28;20026;-78
2022/11/20 06:49:29;;;;;;;19.92;9.25;;;;;;;;;;4997103;28;20034;-78
2022/11/20 06:51:54;;;;;;;20.02;8.88;;;;;;;;;;4995965;28;20022;-77
2022/11/20 06:54:20;;;;;;;14.63;8.52;;;;;;;;;;5010985;28;20392;-78
2022/11/20 06:56:47;;;;;;;17.95;9.55;;;;;;;;;;5006229;28;20030;-78
2022/11/20 06:59:13;;;;;;;20.45;9.68;;;;;;;;;;5003271;28;20084;-78
2022/11/20 07:01:39;;;;;;;18.00;9.45;;;;;;;;;;5003844;28;20026;-78
2022/11/20 07:04:05;;;;;;;21.27;9.00;;;;;;;;;;4997264;28;20105;-77
2022/11/20 07:06:32;;;;;;;20.73;8.95;;;;;;;;;;4997124;28;20117;-78
2022/11/20 07:08:58;;;;;;;18.00;8.93;;;;;;;;;;4996520;28;20034;-78
2022/11/20 07:11:24;;;;;;;16.73;9.15;;;;;;;;;;4997516;28;20019;-78
2022/11/20 07:13:50;;;;;;;17.48;9.45;;;;;;;;;;4995928;28;20051;-78
2022/11/20 07:16:16;;;;;;;18.55;9.00;;;;;;;;;;4995632;28;20433;-78
2022/11/20 07:18:42;;;;;;;16.02;8.65;;;;;;;;;;4996051;28;20085;-78
2022/11/20 07:21:10;;;;;;;20.52;9.75;;;;;;;;;;4995782;28;20385;-78
2022/11/20 07:23:36;;;;;;;17.27;8.77;;;;;;;;;;4995885;28;20121;-78
2022/11/20 07:26:06;;;;;;;16.77;9.23;;;;;;;;;;4995472;28;20034;-78
2022/11/20 07:28:32;;;;;;;16.63;8.90;;;;;;;;;;5003234;28;20057;-78
2022/11/20 07:30:58;;;;;;;16.92;9.00;;;;;;;;;;4998087;28;20069;-78
2022/11/20 07:33:24;;;;;;;19.10;10.18;;;;;;;;;;4998128;28;20053;-79
2022/11/20 07:35:50;;;;;;;19.38;9.63;;;;;;;;;;5006810;28;20436;-79
2022/11/20 07:38:16;;;;;;;19.88;9.85;;;;;;;;;;5008799;28;20594;-79
2022/11/20 07:40:42;;;;;;;23.50;11.35;;;;;;;;;;5008773;28;20053;-78
2022/11/20 07:43:08;;;;;;;19.38;9.77;;;;;;;;;;4999403;28;20117;-79
2022/11/20 07:45:34;;;;;;;23.42;10.20;;;;;;;;;;5008348;28;20030;-78
2022/11/20 07:48:00;;;;;;;20.15;10.63;;;;;;;;;;5005917;28;20027;-78
2022/11/20 07:50:26;;;;;;;22.20;10.57;;;;;;;;;;4996625;28;20023;-78
2022/11/20 07:52:52;;;;;;;23.27;10.98;;;;;;;;;;4996614;28;20105;-78
2022/11/20 07:55:18;;;;;;;21.25;10.23;;;;;;;;;;5004182;28;20022;-78
2022/11/20 07:57:44;;;;;;;24.10;11.05;;;;;;;;;;5011742;28;20069;-78
2022/11/20 08:00:11;;;;;;;21.00;11.07;;;;;;;;;;5007507;28;20026;-79
2022/11/20 08:02:39;;;;;;;19.73;10.63;;;;;;;;;;5001866;28;20030;-78
2022/11/20 08:05:20;;;;;;;23.05;10.45;;;;;;;;;;5007425;28;20457;-78
2022/11/20 08:07:46;;;;;;;20.45;9.73;;;;;;;;;;5016219;28;20025;-78
2022/11/20 08:10:16;;;;;;;18.95;9.80;;;;;;;;;;5015033;28;20037;-78
2022/11/20 08:15:31;;;;;;;22.65;11.40;;;;;;;;;;5002100;28;20036;-78
2022/11/20 08:18:11;;;;;;;23.95;11.88;;;;;;;;;;4995563;28;20301;-77
2022/11/20 08:20:37;;;;;;;25.13;11.30;;;;;;;;;;4996059;28;20018;-78
2022/11/20 08:23:07;;;;;;;24.60;11.05;;;;;;;;;;4996451;28;20248;-78
2022/11/20 08:25:34;;;;;;;20.83;10.20;;;;;;;;;;5013915;28;20432;-77
2022/11/20 08:28:00;;;;;;;21.20;10.65;;;;;;;;;;5014974;28;20057;-77
2022/11/20 08:30:26;;;;;;;19.63;10.70;;;;;;;;;;4995223;28;20030;-77
2022/11/20 08:32:53;;;;;;;22.38;10.63;;;;;;;;;;4995458;28;20029;-77
2022/11/20 08:35:20;;;;;;;21.13;10.43;;;;;;;;;;5004822;28;20033;-77
2022/11/20 08:37:49;;;;;;;18.30;10.27;;;;;;;;;;5003315;28;20030;-78
2022/11/20 08:40:15;;;;;;;19.27;10.20;;;;;;;;;;4994617;28;20118;-78
2022/11/20 08:42:48;;;;;;;16.65;9.38;;;;;;;;;;5002747;28;20023;-78
2022/11/20 08:45:15;;;;;;;17.58;9.48;;;;;;;;;;5003321;28;20037;-77
2022/11/20 08:47:41;;;;;;;18.85;9.55;;;;;;;;;;4999678;28;20034;-77
2022/11/20 08:50:08;;;;;;;19.77;9.70;;;;;;;;;;4994268;28;20069;-77
2022/11/20 08:52:34;;;;;;;15.60;8.55;;;;;;;;;;4994396;28;20033;-77
2022/11/20 08:55:00;;;;;;;13.98;8.30;;;;;;;;;;4994282;28;20113;-77
2022/11/20 08:57:26;;;;;;;17.98;9.30;;;;;;;;;;4994534;28;20469;-77
2022/11/20 08:59:52;;;;;;;15.73;8.55;;;;;;;;;;5006757;28;20029;-77
2022/11/20 09:02:17;;;;;;;15.93;9.32;;;;;;;;;;5004426;28;20038;-77
2022/11/20 09:04:43;;;;;;;16.13;8.68;;;;;;;;;;5002302;28;20582;-78
2022/11/20 09:07:09;;;;;;;16.13;8.85;;;;;;;;;;5002318;28;20041;-77
2022/11/20 09:09:35;;;;;;;13.85;8.25;;;;;;;;;;5002386;28;20104;-78
2022/11/20 09:12:01;;;;;;;14.73;8.55;;;;;;;;;;4993966;28;20037;-77
2022/11/20 09:14:29;;;;;;;15.02;8.77;;;;;;;;;;5002836;28;20096;-77
2022/11/20 09:16:56;;;;;;;16.75;8.90;;;;;;;;;;4999636;28;20061;-78
2022/11/20 09:19:22;;;;;;;16.45;8.43;;;;;;;;;;5010286;28;20026;-78
2022/11/20 09:21:48;;;;;;;17.55;8.32;;;;;;;;;;4999531;28;20484;-77
2022/11/20 09:24:14;;;;;;;18.23;9.32;;;;;;;;;;5001522;28;20026;-78
2022/11/20 09:26:40;;;;;;;16.55;8.38;;;;;;;;;;4999733;28;20044;-78
2022/11/20 09:29:06;;;;;;;17.33;9.43;;;;;;;;;;4993525;28;20081;-78
2022/11/20 09:31:32;;;;;;;16.40;8.68;;;;;;;;;;4992845;28;20492;-77
2022/11/20 09:33:58;;;;;;;13.57;7.70;;;;;;;;;;4996443;28;20026;-77
2022/11/20 09:36:24;;;;;;;17.02;9.43;;;;;;;;;;4995423;28;20041;-77
2022/11/20 09:38:50;;;;;;;16.45;8.60;;;;;;;;;;4999284;28;20102;-78
2022/11/20 09:41:34;;;;;;;20.92;8.75;;;;;;;;;;5001491;28;20085;-78
2022/11/20 09:44:00;;;;;;;17.08;9.02;;;;;;;;;;5006210;28;20034;-78
2022/11/20 09:46:30;;;;;;;14.85;8.55;;;;;;;;;;5000988;28;20026;-78
2022/11/20 09:49:05;;;;;;;17.67;9.40;;;;;;;;;;5000468;28;20090;-78
2022/11/20 09:51:37;;;;;;;14.77;8.43;;;;;;;;;;4998198;28;20229;-78
2022/11/20 09:54:11;;;;;;;13.85;7.53;;;;;;;;;;5000923;28;20334;-78
2022/11/20 09:56:39;;;;;;;15.90;9.02;;;;;;;;;;5002832;28;20113;-78
2022/11/20 09:59:07;;;;;;;15.07;8.27;;;;;;;;;;5010889;28;20034;-78
2022/11/20 10:01:35;;;;;;;16.85;9.45;;;;;;;;;;4997324;28;20041;-78
2022/11/20 10:04:06;;;;;;;16.83;8.27;;;;;;;;;;5007650;28;20025;-78
2022/11/20 10:06:33;;;;;;;16.33;8.30;;;;;;;;;;5000249;28;20030;-78
2022/11/20 10:09:12;;;;;;;17.13;9.05;;;;;;;;;;5009766;28;20435;-78
2022/11/20 10:11:38;;;;;;;17.17;9.05;;;;;;;;;;5001650;28;20522;-78
2022/11/20 10:14:15;;;;;;;17.27;9.95;;;;;;;;;;4992759;28;20027;-78
2022/11/20 10:17:00;;;;;;;14.35;8.80;;;;;;;;;;5004466;28;20038;-78
2022/11/20 10:19:29;;;;;;;18.00;10.05;;;;;;;;;;5010277;28;20373;-78
2022/11/20 10:22:01;;;;;;;17.90;11.05;;;;;;;;;;4997963;28;20026;-78
2022/11/20 10:24:27;;;;;;;17.90;10.23;;;;;;;;;;5003659;28;20049;-78
2022/11/20 10:26:53;;;;;;;16.17;8.82;;;;;;;;;;5001236;28;20026;-78
2022/11/20 10:29:22;;;;;;;16.65;9.18;;;;;;;;;;5004209;28;20034;-78
2022/11/20 10:31:51;;;;;;;17.63;8.70;;;;;;;;;;5005167;28;20484;-78
2022/11/20 10:34:34;;;;;;;18.08;9.43;;;;;;;;;;5004935;28;20470;-78
2022/11/20 10:37:06;;;;;;;17.83;10.52;;;;;;;;;;4996280;28;20504;-78
2022/11/20 10:39:35;;;;;;;17.38;9.73;;;;;;;;;;5007057;28;20105;-78
2022/11/20 10:42:01;;;;;;;18.95;9.80;;;;;;;;;;5000820;28;20061;-78
2022/11/20 10:47:15;;;;;;;15.85;9.20;;;;;;;;;;5008883;28;20025;-78
2022/11/20 10:49:42;;;;;;;17.30;9.23;;;;;;;;;;5006773;28;20037;-77
2022/11/20 10:52:11;;;;;;;17.55;9.65;;;;;;;;;;4994083;28;20618;-78
2022/11/20 10:54:55;;;;;;;15.90;9.43;;;;;;;;;;5001710;28;20453;-78
2022/11/20 10:57:40;;;;;;;14.63;8.68;;;;;;;;;;4993278;28;20037;-78
2022/11/20 11:00:07;;;;;;;15.68;8.98;;;;;;;;;;4999667;28;20049;-78
2022/11/20 11:02:40;;;;;;;17.20;9.20;;;;;;;;;;5002442;28;20165;-78
2022/11/20 11:05:15;;;;;;;17.48;8.77;;;;;;;;;;5009081;28;20030;-78
2022/11/20 11:07:41;;;;;;;15.98;8.98;;;;;;;;;;5001494;28;20026;-78
2022/11/20 11:10:15;;;;;;;16.88;9.52;;;;;;;;;;5013880;28;20026;-79
2022/11/20 11:12:44;;;;;;;18.08;10.35;;;;;;;;;;5000163;28;20030;-78
2022/11/20 11:15:15;;;;;;;15.73;9.35;;;;;;;;;;5006994;28;20037;-78
2022/11/20 11:17:47;;;;;;;15.15;8.95;;;;;;;;;;5002712;28;20493;-78
2022/11/20 11:20:19;;;;;;;14.50;8.05;;;;;;;;;;5004514;28;20033;-78
2022/11/20 11:22:49;;;;;;;16.40;9.35;;;;;;;;;;4998108;28;20030;-78
2022/11/20 11:25:22;;;;;;;15.43;8.13;;;;;;;;;;5004557;28;20085;-78
2022/11/20 11:27:49;;;;;;;16.25;9.15;;;;;;;;;;5012271;28;20084;-78
2022/11/20 11:30:16;;;;;;;16.10;8.45;;;;;;;;;;5017686;28;20484;-78
2022/11/20 11:32:42;;;;;;;13.00;8.40;;;;;;;;;;5001657;28;20030;-78
2022/11/20 11:35:28;;;;;;;14.88;8.25;;;;;;;;;;5003801;28;20041;-78
2022/11/20 11:38:02;;;;;;;14.05;7.88;;;;;;;;;;5007146;28;20045;-78
2022/11/20 11:40:30;;;;;;;15.50;8.77;;;;;;;;;;5018608;28;20041;-79
2022/11/20 11:45:04;;;;;;;15.57;9.02;;;;;;;;;;5019898;28;20022;-78
2022/11/20 11:45:55;;;;;;;13.05;8.00;;;;;;;;;;5004905;28;20035;-78
2022/11/20 11:48:21;;;;;;;16.53;8.83;;;;;;;;;;4999581;28;20732;-78
2022/11/20 11:50:51;;;;;;;15.32;8.57;;;;;;;;;;4998429;28;20037;-78
2022/11/20 11:53:22;;;;;;;13.13;7.47;;;;;;;;;;5000852;28;20023;-78
2022/11/20 11:55:58;;;;;;;12.90;7.32;;;;;;;;;;5016313;28;20037;-79
2022/11/20 11:58:42;;;;;;;14.57;8.07;;;;;;;;;;5006479;28;20492;-78
2022/11/20 12:01:14;;;;;;;13.80;7.70;;;;;;;;;;4998510;28;20026;-79
2022/11/20 12:03:42;;;;;;;13.65;7.95;;;;;;;;;;5003534;28;20022;-79
2022/11/20 12:06:13;;;;;;;13.77;8.30;;;;;;;;;;5010804;28;20054;-78
2022/11/20 12:08:48;;;;;;;14.07;7.82;;;;;;;;;;5005442;28;20489;-79
2022/11/20 12:11:24;;;;;;;12.55;7.50;;;;;;;;;;5011656;28;20018;-78
2022/11/20 12:14:04;;;;;;;16.35;8.13;;;;;;;;;;5001877;28;20065;-79
2022/11/20 12:16:43;;;;;;;10.75;7.13;;;;;;;;;;5011181;28;20029;-79
2022/11/20 12:19:13;;;;;;;10.60;6.22;;;;;;;;;;5008314;28;20077;-79
2022/11/20 12:21:59;;;;;;;12.10;8.07;;;;;;;;;;5013934;28;20050;-79
2022/11/20 12:24:37;;;;;;;11.93;7.07;;;;;;;;;;5011359;28;20026;-79
2022/11/20 12:27:03;;;;;;;12.23;6.55;;;;;;;;;;5009880;28;20054;-79
2022/11/20 12:30:00;;;;;;;11.20;6.90;;;;;;;;;;5006565;28;20033;-79
2022/11/20 12:32:35;;;;;;;12.40;6.95;;;;;;;;;;4996732;28;20117;-79
2022/11/20 12:35:30;;;;;;;11.60;7.18;;;;;;;;;;5017308;28;20053;-79
2022/11/20 12:38:19;;;;;;;12.20;7.68;;;;;;;;;;5015650;28;20059;-79
2022/11/20 12:40:48;;;;;;;12.30;7.63;;;;;;;;;;5006734;28;20100;-79
2022/11/20 12:46:18;;;;;;;11.85;6.80;;;;;;;;;;5000962;28;20052;-79
2022/11/20 12:49:08;;;;;;;11.23;6.78;;;;;;;;;;5006907;28;20030;-79
2022/11/20 12:51:50;;;;;;;11.05;5.63;;;;;;;;;;5008476;28;20030;-79
2022/11/20 12:54:31;;;;;;;10.98;6.85;;;;;;;;;;5007656;28;20421;-80
2022/11/20 12:57:01;;;;;;;10.07;6.63;;;;;;;;;;5007115;28;20038;-79
2022/11/20 12:59:27;;;;;;;11.05;6.60;;;;;;;;;;5010249;28;20030;-79
2022/11/20 13:02:03;;;;;;;11.60;7.10;;;;;;;;;;4999009;28;20054;-79
2022/11/20 13:04:41;;;;;;;12.32;6.82;;;;;;;;;;5011937;28;20073;-79
2022/11/20 13:07:09;;;;;;;11.43;7.32;;;;;;;;;;5006467;28;20058;-79
2022/11/20 13:09:37;;;;;;;11.45;7.15;;;;;;;;;;5000124;28;20087;-79
2022/11/20 13:12:17;;;;;;;10.27;7.60;;;;;;;;;;4997921;28;20094;-79
2022/11/20 13:14:51;;;;;;;11.43;6.82;;;;;;;;;;5006649;28;20034;-79
2022/11/20 13:17:37;;;;;;;10.57;6.45;;;;;;;;;;4999716;28;20504;-80
2022/11/20 13:20:06;;;;;;;11.05;7.20;;;;;;;;;;5005309;28;20080;-79
2022/11/20 13:22:52;;;;;;;11.88;6.93;;;;;;;;;;5003698;28;20038;-79
2022/11/20 13:25:28;;;;;;;11.13;6.55;;;;;;;;;;5002831;28;20023;-79
2022/11/20 13:27:55;;;;;;;11.35;6.03;;;;;;;;;;5006593;28;20037;-79
2022/11/20 13:30:23;;;;;;;9.10;5.57;;;;;;;;;;5007150;28;20018;-79
2022/11/20 13:32:50;;;;;;;11.40;6.45;;;;;;;;;;5013174;28;20038;-79
2022/11/20 13:35:24;;;;;;;10.13;6.25;;;;;;;;;;5004461;28;20061;-79
2022/11/20 13:37:59;;;;;;;11.95;7.25;;;;;;;;;;5002932;28;20034;-79
2022/11/20 13:40:28;;;;;;;10.95;6.90;;;;;;;;;;5008981;28;20025;-79
2022/11/20 13:43:13;;;;;;;11.90;7.60;;;;;;;;;;5016938;28;20049;-79
2022/11/20 13:45:38;;;;;;;11.18;7.15;;;;;;;;;;5009014;28;20034;-79
2022/11/20 13:48:18;;;;;;;12.02;7.00;;;;;;;;;;5006664;28;20037;-79
2022/11/20 13:50:51;;;;;;;10.33;7.10;;;;;;;;;;5012407;28;20030;-79
2022/11/20 13:53:37;;;;;;;11.20;7.47;;;;;;;;;;5008570;28;20026;-78
2022/11/20 13:56:11;;;;;;;13.30;7.45;;;;;;;;;;4993947;28;20030;-78
2022/11/20 13:58:49;;;;;;;10.43;7.05;;;;;;;;;;5002394;28;20038;-78
2022/11/20 14:01:23;;;;;;;10.30;6.65;;;;;;;;;;5004778;28;20025;-78
2022/11/20 14:03:49;;;;;;;12.82;7.93;;;;;;;;;;5001287;28;20029;-77
2022/11/20 14:06:32;;;;;;;11.90;7.65;;;;;;;;;;5000195;28;20029;-78
2022/11/20 14:08:59;;;;;;;11.75;7.55;;;;;;;;;;4997595;28;20026;-79
2022/11/20 14:11:26;;;;;;;11.77;7.47;;;;;;;;;;4997180;28;20080;-78
2022/11/20 14:13:53;;;;;;;11.70;7.35;;;;;;;;;;4999824;28;20030;-79
2022/11/20 14:16:23;;;;;;;12.43;7.07;;;;;;;;;;5003189;28;20038;-78
2022/11/20 14:18:49;;;;;;;12.20;6.68;;;;;;;;;;5005211;28;20049;-78
2022/11/20 14:21:23;;;;;;;13.10;7.63;;;;;;;;;;5003388;28;20487;-79
2022/11/20 14:23:49;;;;;;;12.45;7.57;;;;;;;;;;5007771;28;20022;-79
2022/11/20 14:26:20;;;;;;;12.57;7.70;;;;;;;;;;5006062;28;20030;-78
2022/11/20 14:28:48;;;;;;;10.23;6.55;;;;;;;;;;5010568;28;20026;-79
2022/11/20 14:31:19;;;;;;;14.50;7.50;;;;;;;;;;5011681;28;20029;-78
2022/11/20 14:33:45;;;;;;;12.85;7.53;;;;;;;;;;5008569;28;20031;-79
2022/11/20 14:36:17;;;;;;;12.45;7.68;;;;;;;;;;4999505;28;20409;-79
2022/11/20 14:38:43;;;;;;;11.73;7.05;;;;;;;;;;5006314;28;20503;-79
2022/11/20 14:41:16;;;;;;;15.50;8.05;;;;;;;;;;5006443;28;20034;-78
2022/11/20 14:43:45;;;;;;;12.75;7.55;;;;;;;;;;5010052;28;20053;-78
2022/11/20 14:46:11;;;;;;;12.85;8.50;;;;;;;;;;5002827;28;20065;-78
2022/11/20 14:48:40;;;;;;;13.43;8.32;;;;;;;;;;5012283;28;20103;-77
2022/11/20 14:51:06;;;;;;;13.40;7.95;;;;;;;;;;5001127;28;20026;-78